Time;durP1;ratioP1;P1;durP2;ratioP2;P2;SDS_P1;SDS_P2;PMS_P1;PMS_P2;Temp;Humidity;BMP_temperature;BMP_pressure;BME280_temperature;BME280_humidity;BME280_pressure;Samples;Min_cycle;Max_cycle;Signal;HPM_P1;HPM_P2
2021/01/05 00:01:39;;;;;;;115.82;49.25;;;;;;;1.75;88.11;97586.52;1790226;80;21051;-73
2021/01/05 00:04:05;;;;;;;104.75;44.50;;;;;;;1.75;87.90;97588.38;1822559;78;21198;-73
2021/01/05 00:06:32;;;;;;;99.30;47.05;;;;;;;1.75;87.64;97581.69;1790216;80;21126;-73
2021/01/05 00:08:58;;;;;;;90.53;43.23;;;;;;;1.78;88.00;97576.69;1822462;78;21630;-73
2021/01/05 00:11:24;;;;;;;110.17;51.40;;;;;;;1.83;87.87;97568.80;1790038;79;21118;-73
2021/01/05 00:13:51;;;;;;;105.70;49.67;;;;;;;1.88;88.30;97568.91;1822600;78;21189;-73
2021/01/05 00:16:17;;;;;;;89.97;43.20;;;;;;;1.93;87.92;97565.52;1790179;79;21047;-73
2021/01/05 00:18:43;;;;;;;97.60;47.33;;;;;;;2.00;87.88;97566.20;1822613;78;21188;-73
2021/01/05 00:21:10;;;;;;;110.80;47.98;;;;;;;2.04;87.72;97568.69;1790123;79;21480;-73
2021/01/05 00:23:36;;;;;;;87.57;42.93;;;;;;;2.06;87.74;97571.14;1822446;78;21206;-73
2021/01/05 00:26:03;;;;;;;101.78;43.65;;;;;;;2.10;87.70;97572.28;1790124;79;21142;-73
2021/01/05 00:28:29;;;;;;;102.62;42.70;;;;;;;2.15;87.75;97567.05;1822546;78;21173;-73
2021/01/05 00:30:55;;;;;;;95.72;45.65;;;;;;;2.17;87.64;97567.09;1790135;80;21111;-73
2021/01/05 00:33:22;;;;;;;151.70;64.22;;;;;;;2.18;87.60;97570.05;1822481;78;21623;-73
2021/01/05 00:35:48;;;;;;;157.67;71.07;;;;;;;2.18;87.36;97573.25;1822424;78;21039;-73
2021/01/05 00:38:15;;;;;;;172.17;76.17;;;;;;;2.16;87.32;97577.50;1741852;78;21194;-73
2021/01/05 00:40:41;;;;;;;139.77;62.45;;;;;;;2.13;87.16;97570.47;1790152;79;21040;-73
2021/01/05 00:43:08;;;;;;;183.18;82.80;;;;;;;2.11;86.85;97568.03;1822475;78;21182;-73
2021/01/05 00:45:37;;;;;;;200.38;91.75;;;;;;;1.98;86.65;97566.45;1790091;79;21706;-73
2021/01/05 00:48:03;;;;;;;;;;;;;;;1.94;86.81;97567.95;1825118;78;21562;-73
2021/01/05 00:50:29;;;;;;;163.52;72.82;;;;;;;1.90;86.88;97565.47;1822498;78;20220;-73
2021/01/05 00:52:56;;;;;;;169.50;77.90;;;;;;;1.83;86.61;97570.13;1790096;79;21627;-73
2021/01/05 00:55:22;;;;;;;160.55;73.10;;;;;;;1.71;86.89;97570.67;1822461;78;21146;-73
2021/01/05 00:57:48;;;;;;;163.62;72.90;;;;;;;1.71;87.21;97566.67;1790138;79;21189;-73
2021/01/05 01:00:22;;;;;;;143.90;61.48;;;;;;;1.75;87.28;97562.47;1822307;78;21142;-73
2021/01/05 01:02:50;;;;;;;160.72;69.97;;;;;;;1.76;87.25;97554.74;1789623;79;21154;-73
2021/01/05 01:05:17;;;;;;;164.95;69.85;;;;;;;1.68;87.11;97560.44;1822506;78;21118;-73
2021/01/05 01:07:43;;;;;;;185.60;80.87;;;;;;;1.66;87.48;97552.66;1790151;80;21552;-73
2021/01/05 01:10:11;;;;;;;165.75;72.25;;;;;;;1.62;87.32;97558.20;1822353;78;22130;-73
2021/01/05 01:12:37;;;;;;;182.60;83.25;;;;;;;1.64;87.65;97559.30;1822338;78;21179;-73
2021/01/05 01:15:06;;;;;;;168.60;78.57;;;;;;;1.59;87.63;97559.98;1822412;78;21096;-73
2021/01/05 01:17:32;;;;;;;137.00;59.90;;;;;;;1.60;87.96;97555.45;1822527;78;21162;-73
2021/01/05 01:19:58;;;;;;;149.10;65.70;;;;;;;1.61;87.76;97550.39;1822422;78;21436;-73
2021/01/05 01:22:25;;;;;;;155.07;72.60;;;;;;;1.53;87.67;97554.23;1790181;79;22216;-73
2021/01/05 01:24:51;;;;;;;135.05;66.02;;;;;;;1.53;87.97;97554.75;1822423;78;21234;-73
2021/01/05 01:27:18;;;;;;;154.38;73.67;;;;;;;1.51;87.60;97550.98;1790183;79;21053;-73
2021/01/05 01:29:45;;;;;;;157.93;70.72;;;;;;;1.54;87.86;97551.03;1792523;78;21625;-73
2021/01/05 01:32:11;;;;;;;129.53;64.20;;;;;;;1.61;87.91;97552.54;1790156;79;21189;-73
2021/01/05 01:34:37;;;;;;;135.45;62.08;;;;;;;1.60;87.85;97541.57;1822445;78;22200;-73
2021/01/05 01:37:09;;;;;;;135.88;66.50;;;;;;;1.58;87.85;97541.53;1790077;80;21114;-73
2021/01/05 01:39:36;;;;;;;162.30;77.08;;;;;;;1.58;87.94;97540.19;1822482;78;21117;-73
2021/01/05 01:42:06;;;;;;;166.73;71.02;;;;;;;1.57;87.86;97537.23;1790080;80;21146;-73
2021/01/05 01:44:36;;;;;;;155.57;72.87;;;;;;;1.57;87.87;97527.89;1822352;78;21562;-74
2021/01/05 01:47:27;;;;;;;145.47;69.85;;;;;;;1.58;88.29;97526.31;1790058;80;21260;-74
2021/01/05 01:50:02;;;;;;;144.95;66.65;;;;;;;1.54;88.36;97528.34;1822450;78;21118;-73
2021/01/05 01:53:09;;;;;;;144.43;69.20;;;;;;;1.51;88.40;97520.27;1789836;79;21043;-73
2021/01/05 01:56:30;;;;;;;143.17;64.90;;;;;;;1.47;88.39;97519.66;1822236;78;21078;-73
2021/01/05 01:59:13;;;;;;;120.60;56.80;;;;;;;1.47;88.36;97519.13;1790335;80;21134;-73
2021/01/05 02:02:02;;;;;;;138.10;63.02;;;;;;;1.41;88.28;97514.72;1822594;78;21184;-73
2021/01/05 02:05:04;;;;;;;152.27;73.57;;;;;;;1.35;88.24;97508.97;1790282;80;21094;-74
2021/01/05 02:07:51;;;;;;;158.03;75.80;;;;;;;1.32;88.29;97515.59;1799886;78;21409;-73
2021/01/05 02:10:56;;;;;;;159.85;76.15;;;;;;;1.34;88.71;97516.69;1789816;79;21043;-73
2021/01/05 02:14:01;;;;;;;150.45;70.12;;;;;;;1.38;88.42;97522.68;1756125;78;21142;-74
2021/01/05 02:16:57;;;;;;;134.67;64.40;;;;;;;1.47;88.45;97520.47;1790070;79;21199;-74
2021/01/05 02:19:48;;;;;;;114.47;56.53;;;;;;;1.46;88.35;97520.70;1822597;78;21142;-73
2021/01/05 02:22:20;;;;;;;119.75;60.33;;;;;;;1.48;88.34;97515.94;1753589;80;21095;-73
2021/01/05 02:25:08;;;;;;;163.70;73.95;;;;;;;1.42;88.22;97515.00;1821197;78;21475;-73
2021/01/05 02:27:42;;;;;;;130.67;65.37;;;;;;;1.43;88.58;97516.63;1789887;79;21157;-73
2021/01/05 02:30:09;;;;;;;126.82;65.40;;;;;;;1.39;88.40;97512.28;1822308;78;21643;-74
2021/01/05 02:33:15;;;;;;;137.10;69.03;;;;;;;1.41;88.45;97506.70;1790184;80;21115;-73
2021/01/05 02:36:08;;;;;;;271.55;106.97;;;;;;;1.49;88.65;97502.88;1822531;78;21071;-73
2021/01/05 02:39:02;;;;;;;171.05;76.12;;;;;;;1.55;88.62;97490.73;1790115;80;21548;-73
2021/01/05 02:42:09;;;;;;;185.55;82.90;;;;;;;1.58;88.54;97492.93;1822487;78;21052;-72
2021/01/05 02:45:14;;;;;;;124.33;58.50;;;;;;;1.54;88.26;97486.45;1790324;80;21199;-72
2021/01/05 02:48:04;;;;;;;120.62;58.40;;;;;;;1.39;87.24;97490.92;1822502;78;21521;-74
2021/01/05 02:51:03;;;;;;;115.65;63.70;;;;;;;1.27;87.61;97485.29;1827151;77;21273;-73
2021/01/05 02:54:03;;;;;;;107.30;53.75;;;;;;;1.21;87.83;97485.72;1831579;77;21125;-73
2021/01/05 02:57:15;;;;;;;124.40;60.00;;;;;;;1.20;87.88;97476.09;1851426;77;21087;-73
2021/01/05 03:00:33;;;;;;;125.10;60.52;;;;;;;1.21;87.97;97469.70;1851304;77;21456;-73
2021/01/05 03:03:25;;;;;;;108.00;53.52;;;;;;;1.28;88.15;97467.73;1851238;77;21097;-74
2021/01/05 03:06:23;;;;;;;120.13;56.65;;;;;;;1.33;88.11;97465.16;1850946;77;21118;-72
2021/01/05 03:09:21;;;;;;;89.72;44.35;;;;;;;1.36;88.00;97458.00;1851229;77;21106;-74
2021/01/05 03:12:15;;;;;;;96.63;47.80;;;;;;;1.40;87.89;97451.16;1851134;77;21178;-73
2021/01/05 03:15:23;;;;;;;93.80;48.90;;;;;;;1.26;87.49;97450.30;1851327;77;21456;-73
2021/01/05 03:17:59;;;;;;;89.90;44.40;;;;;;;1.17;87.72;97453.85;1788897;80;21158;-73
2021/01/05 03:20:40;;;;;;;88.72;43.98;;;;;;;1.12;87.55;97449.23;1753684;80;21563;-73
2021/01/05 03:23:08;;;;;;;91.32;46.02;;;;;;;1.04;87.47;97446.09;1788217;80;21629;-74
2021/01/05 03:25:38;;;;;;;113.85;54.00;;;;;;;1.03;87.65;97445.29;1789051;80;21213;-74
2021/01/05 03:28:06;;;;;;;66.47;36.45;;;;;;;1.04;87.87;97444.23;1789080;80;21242;-74
2021/01/05 03:30:37;;;;;;;70.80;38.63;;;;;;;1.01;88.01;97442.55;1758758;80;21218;-73
2021/01/05 03:33:04;;;;;;;71.62;39.25;;;;;;;1.05;87.98;97441.86;1789039;80;21115;-73
2021/01/05 03:35:30;;;;;;;74.80;41.28;;;;;;;1.11;88.12;97436.94;1789019;80;21713;-73
2021/01/05 03:37:57;;;;;;;84.70;46.95;;;;;;;1.16;88.18;97432.73;1789038;80;21646;-73
2021/01/05 03:40:23;;;;;;;91.72;52.17;;;;;;;1.18;88.10;97428.78;1788884;80;22064;-64
2021/01/05 03:42:50;;;;;;;104.97;55.35;;;;;;;1.20;88.03;97428.05;1789172;80;21173;-62
2021/01/05 03:45:24;;;;;;;102.87;54.98;;;;;;;1.19;88.01;97420.25;1789080;80;21174;-73
2021/01/05 03:47:51;;;;;;;99.77;52.75;;;;;;;1.20;87.88;97423.20;1789231;80;21054;-72
2021/01/05 03:50:18;;;;;;;94.52;52.13;;;;;;;1.10;87.56;97419.80;1789087;80;21095;-72
2021/01/05 03:52:44;;;;;;;81.92;47.03;;;;;;;1.08;87.65;97413.36;1789168;80;22133;-72
2021/01/05 03:55:11;;;;;;;77.32;41.37;;;;;;;1.09;87.60;97415.50;1789005;80;21118;-62
2021/01/05 03:57:37;;;;;;;72.95;38.78;;;;;;;1.09;87.59;97407.50;1789230;80;21094;-63
2021/01/05 04:00:26;;;;;;;51.85;27.98;;;;;;;1.10;87.67;97408.59;1789036;80;21059;-74
2021/01/05 04:14:51;;;;;;;49.65;26.85;;;;;;;1.19;87.62;97401.05;1784422;80;21047;-74
2021/01/05 04:17:17;;;;;;;42.43;25.85;;;;;;;1.22;87.91;97397.92;1784391;79;21101;-62
2021/01/05 04:19:43;;;;;;;34.35;23.00;;;;;;;1.22;87.88;97393.92;1784439;80;21613;-73
2021/01/05 04:22:10;;;;;;;42.40;24.43;;;;;;;1.22;87.74;97395.25;1784369;80;22185;-62
2021/01/05 04:24:37;;;;;;;37.35;21.55;;;;;;;1.23;87.76;97397.40;1784321;80;21121;-74
2021/01/05 04:27:04;;;;;;;50.67;29.35;;;;;;;1.22;87.32;97395.25;1784310;79;21078;-62
2021/01/05 04:29:31;;;;;;;43.00;24.05;;;;;;;1.21;87.42;97390.97;1784414;80;21106;-74
2021/01/05 04:31:57;;;;;;;34.38;20.85;;;;;;;1.22;87.36;97393.11;1784346;79;21110;-62
2021/01/05 04:34:23;;;;;;;36.90;22.48;;;;;;;1.20;87.27;97387.17;1784337;80;21342;-62
2021/01/05 04:36:49;;;;;;;38.00;22.27;;;;;;;1.22;87.40;97383.25;1784260;79;21124;-63
2021/01/05 04:39:15;;;;;;;28.52;19.57;;;;;;;1.25;87.42;97388.10;1784425;80;21632;-74
2021/01/05 04:42:05;;;;;;;38.60;23.50;;;;;;;1.27;87.41;97382.52;1784243;80;21066;-62
2021/01/05 04:47:44;;;;;;;50.25;27.77;;;;;;;1.28;87.22;97384.98;1816442;78;21142;-63
2021/01/05 04:50:18;;;;;;;60.83;32.50;;;;;;;1.28;87.34;97384.14;1815385;79;21109;-71
2021/01/05 04:53:13;;;;;;;59.13;31.20;;;;;;;1.19;87.37;97387.70;1815302;79;21114;-69
2021/01/05 04:55:59;;;;;;;66.87;35.48;;;;;;;1.09;87.47;97391.48;1815702;78;21456;-62
2021/01/05 04:58:54;;;;;;;64.10;34.13;;;;;;;1.06;87.60;97387.44;1815697;79;21015;-67
2021/01/05 05:01:25;;;;;;;75.00;37.15;;;;;;;1.05;87.38;97385.83;1759030;79;21282;-59
2021/01/05 05:04:20;;;;;;;77.25;40.25;;;;;;;1.01;87.26;97386.52;1815553;79;21094;-63
2021/01/05 05:06:49;;;;;;;83.17;45.75;;;;;;;0.95;87.23;97383.47;1815553;79;21055;-60
2021/01/05 05:09:47;;;;;;;83.70;41.83;;;;;;;0.92;87.24;97381.24;1815653;79;21087;-59
2021/01/05 05:12:39;;;;;;;82.40;37.40;;;;;;;0.89;87.39;97377.19;1815772;78;21133;-58
2021/01/05 05:15:59;;;;;;;88.05;40.55;;;;;;;0.85;87.62;97376.02;1815702;78;21261;-59
2021/01/05 05:18:50;;;;;;;74.22;37.90;;;;;;;0.78;87.65;97376.16;1815697;78;21117;-60
2021/01/05 05:21:39;;;;;;;67.70;36.93;;;;;;;0.80;87.78;97370.07;1815317;79;21129;-59
2021/01/05 05:24:27;;;;;;;63.83;35.43;;;;;;;0.78;87.77;97373.50;1815936;78;21483;-59
2021/01/05 05:27:16;;;;;;;70.72;38.20;;;;;;;0.80;87.79;97371.41;1815573;79;21134;-64
2021/01/05 05:29:50;;;;;;;86.22;42.80;;;;;;;0.83;87.91;97366.11;1815787;79;21245;-59
2021/01/05 05:32:28;;;;;;;65.45;35.10;;;;;;;0.88;88.08;97373.43;1815672;79;21050;-65
2021/01/05 05:35:00;;;;;;;72.65;36.77;;;;;;;0.92;87.97;97377.24;1815164;79;21094;-62
2021/01/05 05:37:46;;;;;;;63.20;35.55;;;;;;;0.85;87.63;97372.02;1815812;79;21039;-67
2021/01/05 05:40:30;;;;;;;77.72;38.85;;;;;;;0.78;87.73;97373.50;1784163;79;21042;-62
2021/01/05 05:43:44;;;;;;;76.30;41.53;;;;;;;0.79;87.71;97369.78;1815975;78;21094;-69
2021/01/05 05:46:18;;;;;;;86.95;38.78;;;;;;;0.79;87.76;97372.97;1815634;79;21075;-64
2021/01/05 05:49:02;;;;;;;91.22;42.17;;;;;;;0.87;87.92;97375.29;1815303;79;21111;-63
2021/01/05 05:51:33;;;;;;;83.55;36.15;;;;;;;0.83;87.79;97372.78;1785754;79;21137;-64
2021/01/05 05:54:13;;;;;;;70.42;33.23;;;;;;;0.81;87.84;97370.87;1815217;79;21145;-65
2021/01/05 05:56:51;;;;;;;56.48;28.85;;;;;;;0.84;87.81;97373.88;1815843;78;21299;-64
2021/01/05 05:59:18;;;;;;;50.05;25.77;;;;;;;0.84;87.83;97370.40;1810919;79;21138;-63
2021/01/05 06:01:44;;;;;;;49.98;29.07;;;;;;;0.86;87.99;97370.20;1758689;79;21062;-70
2021/01/05 06:04:12;;;;;;;54.85;30.82;;;;;;;0.80;87.90;97371.92;1815806;79;21173;-65
2021/01/05 06:06:38;;;;;;;55.03;28.85;;;;;;;0.78;88.05;97366.83;1815703;79;21098;-66
2021/01/05 06:09:05;;;;;;;59.75;33.02;;;;;;;0.77;88.02;97371.03;1784245;79;21203;-67
2021/01/05 06:11:34;;;;;;;57.20;34.60;;;;;;;0.73;88.05;97365.37;1815620;79;21142;-66
2021/01/05 06:14:01;;;;;;;;;;;;;;;0.75;87.93;97367.27;1818609;78;21524;-66
2021/01/05 06:16:32;;;;;;;70.75;36.53;;;;;;;0.79;87.93;97367.64;1815860;79;20550;-69
2021/01/05 06:18:58;;;;;;;74.50;37.45;;;;;;;0.83;87.98;97358.11;1815811;79;21125;-62
2021/01/05 06:21:24;;;;;;;66.90;34.33;;;;;;;0.92;88.05;97361.23;1815737;79;21181;-67
2021/01/05 06:23:51;;;;;;;58.95;32.55;;;;;;;0.97;87.91;97352.83;1815726;79;21178;-66
2021/01/05 06:26:18;;;;;;;61.33;30.40;;;;;;;1.03;87.95;97357.77;1815702;79;21583;-68
2021/01/05 06:28:49;;;;;;;58.75;33.55;;;;;;;1.10;87.96;97353.89;1815870;79;21122;-63
2021/01/05 06:31:15;;;;;;;59.88;32.80;;;;;;;1.11;87.85;97352.03;1784744;79;21055;-64
2021/01/05 06:33:41;;;;;;;62.65;33.88;;;;;;;1.15;87.96;97355.87;1815837;78;21591;-69
2021/01/05 06:36:08;;;;;;;56.73;32.17;;;;;;;1.14;87.73;97347.58;1812745;79;21950;-65
2021/01/05 06:38:34;;;;;;;52.73;31.52;;;;;;;1.13;87.72;97347.30;1815755;78;21526;-65
2021/01/05 06:41:01;;;;;;;46.88;27.32;;;;;;;1.15;87.78;97349.20;1812967;79;21180;-62
2021/01/05 06:43:27;;;;;;;43.78;26.33;;;;;;;1.14;87.74;97343.58;1815920;79;21169;-63
2021/01/05 06:45:53;;;;;;;44.93;26.27;;;;;;;1.16;87.55;97345.48;1815620;79;21198;-62
2021/01/05 06:48:19;;;;;;;48.63;29.20;;;;;;;1.16;87.40;97343.34;1784674;79;21082;-68
2021/01/05 06:50:46;;;;;;;48.85;29.15;;;;;;;1.16;87.41;97346.81;1815680;79;21047;-74
2021/01/05 06:53:12;;;;;;;40.67;26.02;;;;;;;1.15;87.30;97341.19;1815643;79;21190;-68
2021/01/05 06:55:38;;;;;;;58.78;36.65;;;;;;;1.20;87.48;97348.47;1815689;79;21027;-64
2021/01/05 06:58:05;;;;;;;44.83;29.57;;;;;;;1.27;87.65;97341.95;1815663;79;22225;-63
2021/01/05 07:00:31;;;;;;;55.33;33.70;;;;;;;1.23;87.29;97341.34;1815684;79;21635;-62
2021/01/05 07:02:57;;;;;;;63.23;41.83;;;;;;;1.15;87.22;97344.38;1815795;79;21158;-63
2021/01/05 07:05:24;;;;;;;69.97;42.03;;;;;;;1.09;87.27;97342.13;1815446;79;21181;-63
2021/01/05 07:07:50;;;;;;;78.05;42.35;;;;;;;1.05;87.46;97333.80;1815601;79;21614;-62
2021/01/05 07:10:18;;;;;;;67.40;37.73;;;;;;;1.09;87.55;97340.27;1815670;79;22131;-62
2021/01/05 07:12:45;;;;;;;70.83;39.88;;;;;;;1.12;87.46;97343.81;1815715;79;21146;-62
2021/01/05 07:15:13;;;;;;;74.45;39.18;;;;;;;1.10;87.32;97343.22;1815690;79;21115;-62
2021/01/05 07:17:40;;;;;;;80.15;42.53;;;;;;;1.16;87.38;97346.00;1815922;79;21578;-62
2021/01/05 07:20:08;;;;;;;74.35;42.15;;;;;;;1.16;87.27;97335.33;1815846;79;21145;-62
2021/01/05 07:22:34;;;;;;;78.02;44.00;;;;;;;1.20;87.19;97335.13;1815962;79;21487;-62
2021/01/05 07:25:00;;;;;;;81.02;41.63;;;;;;;1.20;87.24;97331.13;1815803;79;21213;-63
2021/01/05 07:27:26;;;;;;;83.58;44.15;;;;;;;1.20;87.15;97329.30;1815682;79;21141;-62
2021/01/05 07:29:53;;;;;;;78.42;39.65;;;;;;;1.23;87.20;97330.67;1815859;79;21154;-62
2021/01/05 07:32:20;;;;;;;79.12;40.60;;;;;;;1.28;87.38;97328.09;1815001;79;21169;-62
2021/01/05 07:34:47;;;;;;;60.12;33.58;;;;;;;1.35;87.57;97321.56;1815403;79;21575;-62
2021/01/05 07:37:22;;;;;;;78.67;43.65;;;;;;;1.43;87.62;97321.72;1815663;79;21035;-62
2021/01/05 07:39:48;;;;;;;100.30;52.48;;;;;;;1.45;87.33;97331.63;1815851;78;21118;-62
2021/01/05 07:42:20;;;;;;;85.30;46.98;;;;;;;1.37;87.06;97332.03;1815655;79;21046;-62
2021/01/05 07:44:49;;;;;;;125.27;61.85;;;;;;;1.38;87.25;97324.30;1815509;78;21520;-62
2021/01/05 07:47:16;;;;;;;110.83;59.25;;;;;;;1.38;87.10;97318.97;1815521;79;21429;-62
2021/01/05 07:49:43;;;;;;;136.72;65.47;;;;;;;1.34;86.84;97324.48;1815736;78;21103;-63
2021/01/05 07:52:19;;;;;;;127.53;65.12;;;;;;;1.37;86.88;97326.69;1815715;78;21130;-62
2021/01/05 07:54:46;;;;;;;111.25;55.75;;;;;;;1.34;86.66;97327.15;1766371;79;21089;-64
2021/01/05 07:57:12;;;;;;;119.20;64.60;;;;;;;1.27;86.63;97323.27;1830745;78;21051;-63
2021/01/05 07:59:39;;;;;;;115.50;62.62;;;;;;;1.29;86.83;97322.53;1830909;78;22133;-64
2021/01/05 08:02:09;;;;;;;109.42;58.10;;;;;;;1.33;86.95;97325.00;1830699;78;21042;-63
2021/01/05 08:04:36;;;;;;;123.85;63.00;;;;;;;1.25;86.82;97321.38;1830890;78;21090;-61
2021/01/05 08:07:02;;;;;;;83.87;48.50;;;;;;;1.20;86.98;97323.95;1830664;78;21045;-61
2021/01/05 08:09:28;;;;;;;113.70;57.45;;;;;;;1.24;87.22;97326.42;1830871;78;21177;-62
2021/01/05 08:11:54;;;;;;;143.75;74.60;;;;;;;1.27;87.15;97329.14;1830703;78;21247;-61
2021/01/05 08:14:21;;;;;;;107.17;57.43;;;;;;;1.23;86.95;97327.48;1830741;78;21625;-61
2021/01/05 08:16:50;;;;;;;80.40;45.48;;;;;;;1.24;87.17;97318.42;1830673;78;21597;-61
2021/01/05 08:19:17;;;;;;;114.03;57.88;;;;;;;1.32;87.24;97323.39;1830836;78;21126;-62
2021/01/05 08:21:43;;;;;;;109.42;58.48;;;;;;;1.39;87.10;97320.59;1830725;78;21035;-62
2021/01/05 08:24:10;;;;;;;106.40;60.15;;;;;;;1.37;86.76;97315.48;1830799;78;21642;-62
2021/01/05 08:26:37;;;;;;;111.55;55.25;;;;;;;1.38;86.79;97316.30;1830645;78;21578;-63
2021/01/05 08:29:04;;;;;;;119.25;66.72;;;;;;;1.43;87.03;97309.70;1830726;78;21562;-62
2021/01/05 08:31:38;;;;;;;134.40;73.62;;;;;;;1.56;87.24;97312.63;1830658;78;21110;-63
2021/01/05 08:34:05;;;;;;;133.32;75.90;;;;;;;1.65;87.34;97311.19;1830820;78;21073;-62
2021/01/05 08:36:32;;;;;;;131.37;73.85;;;;;;;1.69;87.02;97310.45;1830669;78;21199;-62
2021/01/05 08:38:58;;;;;;;157.93;80.45;;;;;;;1.76;87.16;97303.63;1830728;78;21594;-62
2021/01/05 08:41:27;;;;;;;136.85;75.72;;;;;;;1.78;86.71;97297.52;1830683;78;21047;-62
2021/01/05 08:43:55;;;;;;;128.47;67.15;;;;;;;1.77;86.42;97298.56;1830871;78;21558;-62
2021/01/05 08:46:22;;;;;;;124.27;69.30;;;;;;;1.80;86.55;97303.98;1830654;78;21184;-62
2021/01/05 08:48:49;;;;;;;111.40;63.65;;;;;;;1.81;86.44;97307.73;1830743;78;21243;-62
2021/01/05 08:51:18;;;;;;;132.57;72.67;;;;;;;1.82;86.29;97308.02;1830698;78;21907;-62
2021/01/05 08:53:46;;;;;;;137.97;74.42;;;;;;;1.78;86.15;97308.20;1830158;78;21110;-62
2021/01/05 08:56:23;;;;;;;119.67;61.73;;;;;;;1.69;86.01;97306.45;1830630;78;21027;-63
2021/01/05 08:58:50;;;;;;;118.15;59.65;;;;;;;1.61;86.03;97306.02;1830773;78;21086;-61
2021/01/05 09:01:17;;;;;;;130.47;63.52;;;;;;;1.60;86.27;97310.55;1830708;78;21256;-61
2021/01/05 09:03:43;;;;;;;131.30;69.30;;;;;;;1.61;86.41;97310.03;1830740;78;21184;-61
2021/01/05 09:06:11;;;;;;;134.43;72.90;;;;;;;1.66;86.64;97311.47;1830594;78;21220;-61
2021/01/05 09:08:38;;;;;;;103.78;55.43;;;;;;;1.66;86.56;97302.93;1830715;78;21157;-61
2021/01/05 09:11:08;;;;;;;80.30;45.23;;;;;;;1.65;86.32;97297.83;1830716;78;21435;-61
2021/01/05 09:13:37;;;;;;;88.55;48.35;;;;;;;1.68;86.48;97292.00;1830790;78;21437;-62
2021/01/05 09:16:25;;;;;;;87.72;45.60;;;;;;;1.72;86.47;97289.68;1830929;78;21455;-63
2021/01/05 09:18:53;;;;;;;73.87;40.80;;;;;;;1.73;86.31;97295.30;1839416;78;21048;-63
2021/01/05 09:21:22;;;;;;;90.50;47.43;;;;;;;1.76;86.26;97290.27;1854467;76;21037;-62
2021/01/05 09:23:52;;;;;;;;;;;;;;;1.76;85.93;97293.47;1874068;76;21546;-62
2021/01/05 09:26:22;;;;;;;63.90;36.13;;;;;;;1.76;86.01;97296.14;1871182;76;20875;-62
2021/01/05 09:28:48;;;;;;;60.08;31.12;;;;;;;1.79;86.20;97288.97;1871207;76;21117;-62
2021/01/05 09:31:14;;;;;;;77.27;35.10;;;;;;;1.86;86.18;97290.97;1871205;76;21106;-62
2021/01/05 09:33:40;;;;;;;53.45;33.25;;;;;;;1.92;86.35;97289.48;1871243;76;21609;-62
2021/01/05 09:36:08;;;;;;;46.13;29.02;;;;;;;2.03;86.51;97289.64;1839748;76;21105;-62
2021/01/05 09:38:35;;;;;;;41.18;27.98;;;;;;;2.08;86.36;97284.39;1839692;76;21199;-62
2021/01/05 09:41:01;;;;;;;48.55;29.63;;;;;;;2.11;86.31;97283.38;1870984;76;21042;-62
2021/01/05 09:43:29;;;;;;;52.98;31.57;;;;;;;2.12;86.07;97276.97;1871212;76;21626;-62
2021/01/05 09:45:55;;;;;;;46.85;29.32;;;;;;;2.11;85.93;97277.22;1840176;76;21141;-63
2021/01/05 09:48:21;;;;;;;44.63;28.12;;;;;;;2.06;85.70;97279.83;1871243;76;21590;-62
2021/01/05 09:50:47;;;;;;;42.88;28.00;;;;;;;2.06;85.76;97276.62;1871338;76;22122;-62
2021/01/05 09:53:14;;;;;;;56.42;35.28;;;;;;;2.10;85.70;97275.60;1871229;76;21059;-62
2021/01/05 09:55:41;;;;;;;66.12;39.83;;;;;;;2.13;85.57;97267.89;1871214;76;21046;-63
2021/01/05 09:58:07;;;;;;;61.65;40.15;;;;;;;2.11;85.00;97267.86;1871069;76;21958;-63
2021/01/05 10:00:34;;;;;;;61.73;38.55;;;;;;;2.13;85.30;97266.55;1866169;76;21173;-62
2021/01/05 10:03:00;;;;;;;70.50;42.23;;;;;;;2.14;85.20;97270.06;1865618;76;21653;-63
2021/01/05 10:05:26;;;;;;;81.82;52.85;;;;;;;2.14;85.28;97261.52;1829965;78;21165;-67
2021/01/05 10:07:54;;;;;;;78.97;47.38;;;;;;;2.22;85.37;97258.94;1830044;77;21438;-63
2021/01/05 10:10:24;;;;;;;81.80;46.20;;;;;;;2.32;85.73;97265.80;1862368;77;21126;-62
2021/01/05 10:12:51;;;;;;;67.42;43.70;;;;;;;2.39;85.53;97257.58;1862461;77;21082;-64
2021/01/05 10:15:19;;;;;;;61.60;38.95;;;;;;;2.37;85.22;97259.70;1861139;77;21343;-65
2021/01/05 10:17:46;;;;;;;65.15;46.15;;;;;;;2.24;85.01;97258.19;1835729;78;21109;-69
2021/01/05 10:20:14;;;;;;;68.15;47.33;;;;;;;2.19;85.25;97256.77;1861201;77;21146;-64
2021/01/05 10:22:40;;;;;;;74.37;51.60;;;;;;;2.14;85.30;97252.70;1834589;78;21038;-63
2021/01/05 10:25:09;;;;;;;59.70;41.33;;;;;;;2.08;85.25;97259.81;1853499;77;21142;-63
2021/01/05 10:27:35;;;;;;;76.12;51.10;;;;;;;2.08;85.24;97255.80;1832589;78;21204;-64
2021/01/05 10:30:07;;;;;;;64.82;42.30;;;;;;;2.05;85.17;97252.30;1853405;77;21154;-64
2021/01/05 10:32:34;;;;;;;84.22;44.80;;;;;;;2.04;85.27;97250.65;1833946;78;21134;-68
2021/01/05 10:35:00;;;;;;;95.32;45.17;;;;;;;2.06;85.40;97241.88;1832397;78;21019;-61
2021/01/05 10:37:26;;;;;;;93.35;45.08;;;;;;;2.15;85.55;97244.42;1851997;77;21519;-65
2021/01/05 10:39:52;;;;;;;65.55;37.85;;;;;;;2.18;85.58;97238.58;1837148;78;21166;-64
2021/01/05 10:42:19;;;;;;;59.88;35.05;;;;;;;2.20;85.50;97243.15;1837019;78;21107;-58
2021/01/05 10:44:45;;;;;;;41.80;24.95;;;;;;;2.20;85.44;97247.16;1837212;78;21681;-57
2021/01/05 10:47:14;;;;;;;42.20;24.98;;;;;;;2.17;85.40;97245.52;1837094;78;21038;-58
2021/01/05 10:49:39;;;;;;;47.03;29.47;;;;;;;2.19;85.70;97239.39;1837291;78;21122;-58
2021/01/05 10:52:06;;;;;;;57.35;32.58;;;;;;;2.23;85.70;97243.20;1833832;78;21185;-58
2021/01/05 10:54:33;;;;;;;53.05;32.88;;;;;;;2.22;85.46;97237.05;1819914;78;21132;-66
2021/01/05 10:57:04;;;;;;;58.90;35.17;;;;;;;2.20;85.45;97239.14;1837029;78;21044;-61
2021/01/05 10:59:31;;;;;;;65.65;35.70;;;;;;;2.23;85.59;97240.53;1837141;78;21086;-69
2021/01/05 11:02:02;;;;;;;85.15;45.67;;;;;;;2.25;85.59;97244.57;1847831;76;21131;-65
2021/01/05 11:04:30;;;;;;;107.30;58.85;;;;;;;2.26;85.43;97240.03;1835780;78;21562;-64
2021/01/05 11:06:58;;;;;;;144.25;71.28;;;;;;;2.21;85.02;97243.42;1856388;77;21083;-62
2021/01/05 11:09:26;;;;;;;79.82;45.90;;;;;;;2.16;85.13;97243.90;1830284;78;21585;-64
2021/01/05 11:12:06;;;;;;;56.90;36.42;;;;;;;2.15;85.27;97242.28;1855421;77;21957;-62
2021/01/05 11:14:33;;;;;;;55.03;34.18;;;;;;;2.19;85.52;97241.53;1830270;78;21063;-62
2021/01/05 11:16:59;;;;;;;58.23;35.73;;;;;;;2.21;85.42;97247.44;1854540;77;21198;-61
2021/01/05 11:19:25;;;;;;;70.32;40.85;;;;;;;2.23;85.42;97240.00;1849489;77;21134;-61
2021/01/05 11:21:57;;;;;;;69.55;45.33;;;;;;;2.22;85.44;97237.55;1862291;77;21170;-68
2021/01/05 11:24:25;;;;;;;75.45;47.45;;;;;;;2.24;85.51;97237.61;1862580;77;21506;-65
2021/01/05 11:26:51;;;;;;;85.90;51.77;;;;;;;2.23;85.40;97235.19;1858024;77;21289;-65
2021/01/05 11:29:18;;;;;;;105.27;62.23;;;;;;;2.25;85.57;97233.07;1830119;78;21445;-62
2021/01/05 11:31:45;;;;;;;102.25;58.28;;;;;;;2.25;85.43;97237.08;1855395;77;21051;-62
2021/01/05 11:34:11;;;;;;;103.30;61.13;;;;;;;2.22;85.21;97230.37;1830028;78;21531;-75
2021/01/05 11:36:40;;;;;;;103.07;64.27;;;;;;;2.21;85.27;97226.58;1855382;77;22028;-68
2021/01/05 11:52:10;;;;;;;135.70;79.22;;;;;;;2.00;85.52;97222.00;1850071;74;22104;-72
2021/01/05 11:54:36;;;;;;;154.68;86.82;;;;;;;1.88;85.23;97225.58;1793237;78;108270;-74
2021/01/05 11:57:02;;;;;;;141.12;85.22;;;;;;;1.82;85.67;97225.20;1749093;80;21175;-63
2021/01/05 11:59:29;;;;;;;134.27;80.45;;;;;;;1.82;85.63;97221.20;1772251;80;21229;-63
2021/01/05 12:01:55;;;;;;;149.75;84.72;;;;;;;1.79;85.85;97223.52;1772462;81;21162;-69
2021/01/05 12:04:22;;;;;;;129.68;76.47;;;;;;;1.81;85.67;97226.78;1775287;79;21575;-72
2021/01/05 12:06:52;;;;;;;127.45;78.20;;;;;;;1.82;85.92;97229.21;1768891;80;21082;-70
2021/01/05 12:09:19;;;;;;;111.50;64.27;;;;;;;1.91;85.98;97229.09;1773566;80;21302;-69
2021/01/05 12:11:46;;;;;;;115.20;64.62;;;;;;;1.98;85.85;97224.92;1773445;80;21122;-74
2021/01/05 12:14:13;;;;;;;134.55;79.90;;;;;;;2.04;85.96;97229.80;1773544;80;21626;-67